Sunol, Nebraska
Current Conditions -  °F | °C
As of 1:53 PM on Saturday 25 Oct 2014 (Local Time) from KSNY Reporting Station
Clear Clear  
Wind Chill: 78°   Ceiling: Unl
Heat Index: 78°   Visibility: 10mi
Dew Point: 36°   Wind: 7mph
Humidity: 22%   Direction: 100°E
Pressure: 30.09"   Gusts: NA
Location:  41.2256°N, 102.681°W
Report Text: KSNY 251953Z AUTO 10006KT 10SM CLR 26/02 A3009 RMK AO2 SLP157 T02560022
Loading
Personal Weather Stations






























Interactive Weather Map
Tropical Storm Tracking
New forecast layout! Learn more

10-Day Weather Forecast

Advertisements
Track Severe Weather on mobile